Airports

 

 

Airport Name Latest METAR Visual Conditions
Atlantic City Int. (ACY) KACY 250454Z 00000KT 10SM CLR 10/05 A2990 RMK AO2 SLP123 T01000050 402390100 VFR
Baltimore International Airport (BWI) KBWI 250454Z 00000KT 10SM SCT100 BKN130 BKN250 15/09 A2990 RMK AO2 SLP125 T01500089 402440133 VFR
Washington National Airport (DCA) KDCA 250452Z 03003KT 10SM OVC140 18/10 A2991 RMK AO2 SLP126 T01830100 402500178 VFR
Dulles International Airport (IAD) KIAD 250452Z 00000KT 10SM OVC130 16/07 A2991 RMK AO2 SLP126 T01560072 402390139 VFR
Norfolk International Airport (ORF) KORF 250451Z 08003KT 10SM CLR 19/14 A2988 RMK AO2 SLP116 T01940139 403000178 VFR
Raleigh International Airport (RDU) KRDU 250451Z 23004KT 10SM BKN250 20/12 A2988 RMK AO2 SLP114 T02000122 402890144 VFR
Richmond International Airport (RIC) KRIC 250454Z 09005KT 10SM OVC130 19/14 A2989 RMK AO2 SLP125 T01890144 402940167 VFR
Roanoke Regional Airport (ROA) KROA 250454Z 35005KT 10SM CLR 17/11 A2990 RMK AO2 SLP116 T01670106 402830167 VFR